createdAt,value
2022-09-20T00:00:24.967Z,19.14
2022-09-20T00:01:25.639Z,19.18
2022-09-20T00:02:26.262Z,19.19
2022-09-20T00:03:26.847Z,19.25
2022-09-20T00:04:27.408Z,19.32
2022-09-20T00:05:28.012Z,19.37
2022-09-20T00:06:28.602Z,19.44
2022-09-20T00:07:29.164Z,19.51
2022-09-20T00:08:29.913Z,19.58
2022-09-20T00:09:30.473Z,19.66
2022-09-20T00:10:31.059Z,19.76
2022-09-20T00:11:31.615Z,19.84
2022-09-20T00:12:32.181Z,19.92
2022-09-20T00:13:32.776Z,19.99
2022-09-20T00:14:33.335Z,20.06
2022-09-20T00:15:33.898Z,20.11
2022-09-20T00:16:34.543Z,20.10
2022-09-20T00:17:35.144Z,20.10
2022-09-20T00:18:35.928Z,20.11
2022-09-20T00:19:36.483Z,20.08
2022-09-20T00:20:37.041Z,20.06
2022-09-20T00:21:37.606Z,20.06
2022-09-20T00:22:38.168Z,20.10
2022-09-20T00:23:38.766Z,20.13
2022-09-20T00:24:39.322Z,20.14
2022-09-20T00:25:39.906Z,20.14
2022-09-20T00:26:40.463Z,20.16
2022-09-20T00:27:41.043Z,20.17
2022-09-20T00:28:41.673Z,20.17
2022-09-20T00:29:42.376Z,20.18
2022-09-20T00:30:42.943Z,20.20
2022-09-20T00:31:43.550Z,20.20
2022-09-20T00:32:44.152Z,20.24
2022-09-20T00:33:44.742Z,20.26
2022-09-20T00:34:45.301Z,20.28
2022-09-20T00:35:45.857Z,20.31
2022-09-20T00:36:46.419Z,20.32
2022-09-20T00:37:46.978Z,20.38
2022-09-20T00:38:47.577Z,20.39
2022-09-20T00:39:48.136Z,20.47
2022-09-20T00:40:48.721Z,20.51
2022-09-20T00:41:49.289Z,20.57
2022-09-20T00:42:49.854Z,20.61
2022-09-20T00:43:50.453Z,20.67
2022-09-20T00:44:51.017Z,20.72
2022-09-20T00:45:51.659Z,20.72
2022-09-20T00:46:52.265Z,20.76
2022-09-20T00:47:52.827Z,20.76
2022-09-20T00:48:53.619Z,20.77
2022-09-20T00:49:54.187Z,20.79
2022-09-20T00:50:54.759Z,20.79
2022-09-20T00:51:55.321Z,20.80
2022-09-20T00:52:55.891Z,20.77
2022-09-20T00:53:56.587Z,20.76
2022-09-20T00:54:57.152Z,20.77
2022-09-20T00:55:57.741Z,20.76
2022-09-20T00:56:58.297Z,20.73
2022-09-20T00:57:58.860Z,20.70
2022-09-20T00:58:59.459Z,20.72
2022-09-20T01:00:00.017Z,20.70
2022-09-20T01:01:00.652Z,20.70
2022-09-20T01:02:01.277Z,20.69
2022-09-20T01:03:01.865Z,20.69
2022-09-20T01:04:02.461Z,20.70
2022-09-20T01:05:03.031Z,20.67
2022-09-20T01:06:03.592Z,20.70
2022-09-20T01:07:04.151Z,20.69
2022-09-20T01:08:04.719Z,20.69
2022-09-20T01:09:05.368Z,20.67
2022-09-20T01:10:05.928Z,20.67
2022-09-20T01:11:06.521Z,20.70
2022-09-20T01:12:07.088Z,20.67
2022-09-20T01:13:07.652Z,20.69
2022-09-20T01:14:08.252Z,20.69
2022-09-20T01:15:08.821Z,20.70
2022-09-20T01:16:09.441Z,20.70
2022-09-20T01:17:10.082Z,20.73
2022-09-20T01:18:10.650Z,20.74
2022-09-20T01:19:11.371Z,20.77
2022-09-20T01:20:11.924Z,20.76
2022-09-20T01:21:12.486Z,20.77
2022-09-20T01:22:13.040Z,20.80
2022-09-20T01:23:13.603Z,20.82
2022-09-20T01:24:14.234Z,20.80
2022-09-20T01:25:14.791Z,20.79
2022-09-20T01:26:15.375Z,20.79
2022-09-20T01:27:15.927Z,20.79
2022-09-20T01:28:16.495Z,20.77
2022-09-20T01:29:17.195Z,20.76
2022-09-20T01:30:17.781Z,20.67
2022-09-20T01:31:18.456Z,20.62
2022-09-20T01:32:19.086Z,20.58
2022-09-20T01:33:19.640Z,20.57
2022-09-20T01:34:20.240Z,20.55
2022-09-20T01:35:20.817Z,20.52
2022-09-20T01:36:21.384Z,20.51
2022-09-20T01:37:21.949Z,20.52
2022-09-20T01:38:22.510Z,20.52
2022-09-20T01:39:23.103Z,20.57
2022-09-20T01:40:23.782Z,20.59
2022-09-20T01:41:24.407Z,20.62
2022-09-20T01:42:24.977Z,20.66
2022-09-20T01:43:25.549Z,20.69
2022-09-20T01:44:26.166Z,20.69
2022-09-20T01:45:26.788Z,20.72
2022-09-20T01:46:27.367Z,20.73
2022-09-20T01:47:27.922Z,20.74
2022-09-20T01:48:28.476Z,20.72
2022-09-20T01:49:29.136Z,20.72
2022-09-20T01:50:29.691Z,20.70
2022-09-20T01:51:30.257Z,20.70
2022-09-20T01:52:30.821Z,20.67
2022-09-20T01:53:31.381Z,20.70
2022-09-20T01:54:31.989Z,20.66
2022-09-20T01:55:32.551Z,20.64
2022-09-20T01:56:33.137Z,20.67
2022-09-20T01:57:33.722Z,20.66
2022-09-20T01:58:34.292Z,20.67
2022-09-20T01:59:35.054Z,20.69
2022-09-20T02:00:35.615Z,20.67
2022-09-20T02:01:36.321Z,20.66
2022-09-20T02:02:36.979Z,20.62
2022-09-20T02:03:37.596Z,20.59
2022-09-20T02:04:38.189Z,20.55
2022-09-20T02:05:38.743Z,20.52
2022-09-20T02:06:39.333Z,20.50
2022-09-20T02:07:39.897Z,20.43
2022-09-20T02:08:40.461Z,20.39
2022-09-20T02:09:41.103Z,20.39
2022-09-20T02:10:41.656Z,20.35
2022-09-20T02:11:42.241Z,20.35
2022-09-20T02:12:42.793Z,20.31
2022-09-20T02:13:43.355Z,20.31
2022-09-20T02:14:43.951Z,20.26
2022-09-20T02:15:44.519Z,20.20
2022-09-20T02:16:45.153Z,20.20
2022-09-20T02:17:45.772Z,20.17
2022-09-20T02:18:46.334Z,20.16
2022-09-20T02:19:47.013Z,20.14
2022-09-20T02:20:47.584Z,20.16
2022-09-20T02:21:48.142Z,20.16
2022-09-20T02:22:48.738Z,20.24
2022-09-20T02:23:49.350Z,20.32
2022-09-20T02:24:50.016Z,20.41
2022-09-20T02:25:50.582Z,20.50
2022-09-20T02:26:51.167Z,20.52
2022-09-20T02:27:51.728Z,20.55
2022-09-20T02:28:52.285Z,20.58
2022-09-20T02:29:52.911Z,20.59
2022-09-20T02:30:53.470Z,20.58
2022-09-20T02:31:54.090Z,20.58
2022-09-20T02:32:54.724Z,20.57
2022-09-20T02:33:55.287Z,20.52
2022-09-20T02:34:55.881Z,20.50
2022-09-20T02:35:56.437Z,20.43
2022-09-20T02:36:56.997Z,20.47
2022-09-20T02:37:57.566Z,20.43
2022-09-20T02:38:58.136Z,20.42
2022-09-20T02:39:58.916Z,20.38
2022-09-20T02:40:59.516Z,20.35
2022-09-20T02:42:00.101Z,20.32
2022-09-20T02:43:00.670Z,20.26
2022-09-20T02:44:01.231Z,20.23
2022-09-20T02:45:01.830Z,20.17
2022-09-20T02:46:02.481Z,20.13
2022-09-20T02:47:03.117Z,20.06
2022-09-20T02:48:03.684Z,20.01
2022-09-20T02:49:04.250Z,19.94
2022-09-20T02:50:04.869Z,19.87
2022-09-20T02:51:05.429Z,19.81
2022-09-20T02:52:05.989Z,19.74
2022-09-20T02:53:06.552Z,19.71
2022-09-20T02:54:07.115Z,19.65
2022-09-20T02:55:07.830Z,19.65
2022-09-20T02:56:08.392Z,19.63
2022-09-20T02:57:08.971Z,19.61
2022-09-20T02:58:09.539Z,19.63
2022-09-20T02:59:10.093Z,19.61
2022-09-20T03:00:10.696Z,19.62
2022-09-20T03:01:11.355Z,19.65
2022-09-20T03:02:12.068Z,19.65
2022-09-20T03:03:12.692Z,19.62
2022-09-20T03:04:13.252Z,19.58
2022-09-20T03:05:13.870Z,19.55
2022-09-20T03:06:14.437Z,19.54
2022-09-20T03:07:15.002Z,19.48
2022-09-20T03:08:15.556Z,19.46
2022-09-20T03:09:16.127Z,19.40
2022-09-20T03:10:16.774Z,19.32
2022-09-20T03:11:17.338Z,19.21
2022-09-20T03:12:17.922Z,19.10
2022-09-20T03:13:18.481Z,19.02
2022-09-20T03:14:19.044Z,18.94
2022-09-20T03:15:19.765Z,18.90
2022-09-20T03:16:20.396Z,18.87
2022-09-20T03:17:20.968Z,18.82
2022-09-20T03:18:21.527Z,18.80
2022-09-20T03:19:22.082Z,18.73
2022-09-20T03:20:44.490Z,18.73
2022-09-20T03:21:23.495Z,18.72
2022-09-20T03:22:24.057Z,18.75
2022-09-20T03:23:24.613Z,18.80
2022-09-20T03:24:25.173Z,18.82
2022-09-20T03:25:25.735Z,18.82
2022-09-20T03:26:26.399Z,18.84
2022-09-20T03:27:26.985Z,18.87
2022-09-20T03:28:27.548Z,18.94
2022-09-20T03:29:28.109Z,19.02
2022-09-20T03:30:28.670Z,19.08
2022-09-20T03:31:29.311Z,19.14
2022-09-20T03:32:29.937Z,19.19
2022-09-20T03:33:30.502Z,19.22
2022-09-20T03:34:31.068Z,19.29
2022-09-20T03:35:31.628Z,19.29
2022-09-20T03:36:32.219Z,19.29
2022-09-20T03:37:32.779Z,19.26
2022-09-20T03:38:33.353Z,19.23
2022-09-20T03:39:33.916Z,19.25
2022-09-20T03:40:34.500Z,19.25
2022-09-20T03:41:35.106Z,19.23
2022-09-20T03:42:35.696Z,19.26
2022-09-20T03:43:36.260Z,19.26
2022-09-20T03:44:36.822Z,19.28
2022-09-20T03:45:37.427Z,19.28
2022-09-20T03:46:38.054Z,19.29
2022-09-20T03:47:38.616Z,19.29
2022-09-20T03:48:39.175Z,19.33
2022-09-20T03:49:39.742Z,19.32
2022-09-20T03:50:40.305Z,19.32
2022-09-20T03:51:40.849Z,19.36
2022-09-20T03:52:41.358Z,19.37
2022-09-20T03:53:41.861Z,19.40
2022-09-20T03:54:42.367Z,19.44
2022-09-20T03:55:42.886Z,19.47
2022-09-20T03:56:43.502Z,19.47
2022-09-20T03:57:44.037Z,19.48
2022-09-20T03:58:44.545Z,19.48
2022-09-20T03:59:45.047Z,19.50
2022-09-20T04:00:45.683Z,19.47
2022-09-20T04:01:46.271Z,19.44
2022-09-20T04:02:46.832Z,19.46
2022-09-20T04:03:47.380Z,19.44
2022-09-20T04:04:47.886Z,19.43
2022-09-20T04:05:48.402Z,19.43
2022-09-20T04:06:48.940Z,19.44
2022-09-20T04:07:49.444Z,19.46
2022-09-20T04:08:49.946Z,19.44
2022-09-20T04:09:50.452Z,19.47
2022-09-20T04:10:50.968Z,19.47
2022-09-20T04:11:51.577Z,19.47
2022-09-20T04:12:52.373Z,19.50
2022-09-20T04:13:52.877Z,19.48
2022-09-20T04:14:53.389Z,19.47
2022-09-20T04:15:53.892Z,19.46
2022-09-20T04:16:54.554Z,19.44
2022-09-20T04:17:55.081Z,19.43
2022-09-20T04:18:55.579Z,19.43
2022-09-20T04:19:56.084Z,19.46
2022-09-20T04:20:56.584Z,19.47
2022-09-20T04:21:58.156Z,19.54
2022-09-20T04:22:58.188Z,19.56
2022-09-20T04:23:58.711Z,19.62
2022-09-20T04:24:59.210Z,19.65
2022-09-20T04:26:00.005Z,19.63
2022-09-20T04:27:01.518Z,19.68
2022-09-20T04:28:01.569Z,19.68
2022-09-20T04:29:02.083Z,19.68
2022-09-20T04:30:03.192Z,19.68
2022-09-20T04:31:03.601Z,19.66
2022-09-20T04:32:05.107Z,19.66
2022-09-20T04:33:07.668Z,19.63
2022-09-20T04:34:05.864Z,19.61
2022-09-20T04:35:05.745Z,19.61
2022-09-20T04:36:11.527Z,19.62
2022-09-20T04:37:07.068Z,19.61
2022-09-20T04:38:10.418Z,19.62
2022-09-20T04:39:08.910Z,19.61
2022-09-20T04:40:14.453Z,19.61
2022-09-20T04:41:10.659Z,19.59
2022-09-20T04:42:31.218Z,19.58
2022-09-20T04:43:14.461Z,19.56
2022-09-20T04:44:12.071Z,19.58
2022-09-20T04:45:18.447Z,19.55
2022-09-20T04:46:13.509Z,19.51
2022-09-20T04:47:14.074Z,19.54
2022-09-20T04:48:14.593Z,19.51
2022-09-20T04:49:15.103Z,19.50
2022-09-20T04:50:15.612Z,19.55
2022-09-20T04:51:16.118Z,19.56
2022-09-20T04:52:16.939Z,19.55
2022-09-20T04:53:17.330Z,19.55
2022-09-20T04:54:17.896Z,19.61
2022-09-20T04:55:18.451Z,19.63
2022-09-20T04:56:18.961Z,19.68
2022-09-20T04:57:20.850Z,19.74
2022-09-20T04:58:20.482Z,19.78
2022-09-20T04:59:20.980Z,19.83
2022-09-20T05:00:21.864Z,19.92
2022-09-20T05:01:23.797Z,20.08
2022-09-20T05:02:23.682Z,20.38
2022-09-20T05:03:23.790Z,20.73
2022-09-20T05:04:24.866Z,20.97
2022-09-20T05:05:25.726Z,20.94
2022-09-20T05:06:26.018Z,20.74
2022-09-20T05:07:26.727Z,20.55
2022-09-20T05:08:28.158Z,20.39
2022-09-20T05:09:28.494Z,20.29
2022-09-20T05:10:29.839Z,20.23
2022-09-20T05:11:30.548Z,20.18
2022-09-20T05:12:32.642Z,20.16
2022-09-20T05:13:32.007Z,20.11
2022-09-20T05:14:32.649Z,20.11
2022-09-20T05:15:33.595Z,20.06
2022-09-20T05:16:44.150Z,20.06
2022-09-20T05:17:34.849Z,20.08
2022-09-20T05:18:35.481Z,20.10
2022-09-20T05:19:36.348Z,20.10
2022-09-20T05:20:36.989Z,20.13
2022-09-20T05:21:42.445Z,20.16
2022-09-20T05:22:38.639Z,20.21
2022-09-20T05:23:39.287Z,20.28
2022-09-20T05:24:39.980Z,20.31
2022-09-20T05:25:40.544Z,20.36
2022-09-20T05:26:41.218Z,20.39
2022-09-20T05:27:42.050Z,20.43
2022-09-20T05:28:42.675Z,20.50
2022-09-20T05:29:43.438Z,20.55
2022-09-20T05:30:44.103Z,20.61
2022-09-20T05:31:44.840Z,20.59
2022-09-20T05:32:45.536Z,20.67
2022-09-20T05:33:46.156Z,20.69
2022-09-20T05:34:46.735Z,20.73
2022-09-20T05:35:47.367Z,20.77
2022-09-20T05:36:48.073Z,20.79
2022-09-20T05:37:48.799Z,20.85
2022-09-20T05:38:49.531Z,20.88
2022-09-20T05:39:50.641Z,20.94
2022-09-20T05:40:50.897Z,20.97
2022-09-20T05:41:52.277Z,21.04
2022-09-20T05:42:52.820Z,21.07
2022-09-20T05:43:54.561Z,21.14
2022-09-20T05:44:54.721Z,21.25
2022-09-20T05:45:55.205Z,21.29
2022-09-20T05:46:56.045Z,21.35
2022-09-20T05:47:56.142Z,21.40
2022-09-20T05:48:56.731Z,21.49
2022-09-20T05:49:57.309Z,21.52
2022-09-20T05:51:01.864Z,21.61
2022-09-20T05:51:58.960Z,21.69
2022-09-20T05:53:00.103Z,21.77
2022-09-20T05:53:59.949Z,21.84
2022-09-20T05:55:00.519Z,21.94
2022-09-20T05:56:07.379Z,22.03
2022-09-20T05:57:02.888Z,22.10
2022-09-20T05:58:03.162Z,22.20
2022-09-20T05:59:03.757Z,22.30
2022-09-20T06:00:04.565Z,22.37
2022-09-20T06:01:05.203Z,22.49
2022-09-20T06:02:05.897Z,22.58
2022-09-20T06:03:07.397Z,22.64
2022-09-20T06:04:07.566Z,22.73
2022-09-20T06:05:12.288Z,22.82
2022-09-20T06:06:09.010Z,22.91
2022-09-20T06:07:09.677Z,22.98
2022-09-20T06:08:10.746Z,23.07
2022-09-20T06:09:11.307Z,23.15
2022-09-20T06:10:11.971Z,23.20
2022-09-20T06:11:12.822Z,23.31
2022-09-20T06:12:13.562Z,23.35
2022-09-20T06:13:21.241Z,23.43
2022-09-20T06:14:24.538Z,23.46
2022-09-20T06:15:16.796Z,23.51
2022-09-20T06:16:16.490Z,23.60
2022-09-20T06:17:17.227Z,23.65
2022-09-20T06:18:17.955Z,23.73
2022-09-20T06:19:18.729Z,23.76
2022-09-20T06:20:19.312Z,23.87
2022-09-20T06:21:20.045Z,23.95
2022-09-20T06:22:20.735Z,24.02
2022-09-20T06:23:21.470Z,24.10
2022-09-20T06:24:21.980Z,24.18
2022-09-20T06:25:22.610Z,24.22
2022-09-20T06:26:23.237Z,24.32
2022-09-20T06:27:24.057Z,24.40
2022-09-20T06:28:25.000Z,24.42
2022-09-20T06:29:26.714Z,24.46
2022-09-20T06:30:26.458Z,24.55
2022-09-20T06:31:27.882Z,24.58
2022-09-20T06:32:28.885Z,24.62
2022-09-20T06:33:29.148Z,24.69
2022-09-20T06:34:29.939Z,24.80
2022-09-20T06:35:31.481Z,24.87
2022-09-20T06:36:32.790Z,24.93
2022-09-20T06:37:36.011Z,24.96
2022-09-20T06:38:32.780Z,25.03
2022-09-20T06:39:33.754Z,25.08
2022-09-20T06:40:34.371Z,25.13
2022-09-20T06:41:35.025Z,25.17
2022-09-20T06:42:35.602Z,25.17
2022-09-20T06:43:39.040Z,25.17
2022-09-20T06:45:18.252Z,25.24
2022-09-20T06:47:44.232Z,25.45
2022-09-20T06:48:32.665Z,25.50
2022-09-20T06:49:29.297Z,25.55
2022-09-20T06:50:30.347Z,25.57
2022-09-20T06:51:30.533Z,25.58
2022-09-20T06:52:31.764Z,25.60
2022-09-20T06:53:31.966Z,25.67
2022-09-20T06:54:39.854Z,25.75
2022-09-20T06:55:33.395Z,25.79
2022-09-20T06:56:34.005Z,25.91
2022-09-20T06:57:34.618Z,26.01
2022-09-20T06:58:35.350Z,26.07
2022-09-20T06:59:36.034Z,26.13
2022-09-20T07:00:36.814Z,26.21
2022-09-20T07:01:37.499Z,26.29
2022-09-20T07:02:38.395Z,26.36
2022-09-20T07:03:39.658Z,26.39
2022-09-20T07:04:39.884Z,26.48
2022-09-20T07:05:40.564Z,26.54
2022-09-20T07:06:41.265Z,26.62
2022-09-20T07:07:41.865Z,26.67
2022-09-20T07:08:42.533Z,26.76
2022-09-20T07:09:43.154Z,26.80
2022-09-20T07:10:43.821Z,26.88
2022-09-20T07:11:49.689Z,26.91
2022-09-20T07:12:45.298Z,26.99
2022-09-20T07:13:45.973Z,27.04
2022-09-20T07:14:46.796Z,27.09
2022-09-20T07:15:47.479Z,27.17
2022-09-20T07:16:48.345Z,27.21
2022-09-20T07:17:49.046Z,27.28
2022-09-20T07:18:49.725Z,27.31
2022-09-20T07:19:50.922Z,27.39
2022-09-20T07:20:51.085Z,27.43
2022-09-20T07:21:51.668Z,27.46
2022-09-20T07:22:52.363Z,27.51
2022-09-20T07:23:53.554Z,27.57
2022-09-20T07:24:54.028Z,27.62
2022-09-20T07:25:54.653Z,27.72
2022-09-20T07:26:55.397Z,27.75
2022-09-20T07:27:55.747Z,27.77
2022-09-20T07:28:56.524Z,27.84
2022-09-20T07:29:57.223Z,27.90
2022-09-20T07:30:57.942Z,27.93
2022-09-20T07:31:58.479Z,27.99
2022-09-20T07:32:59.243Z,28.03
2022-09-20T07:33:59.794Z,28.06
2022-09-20T07:35:01.290Z,28.11
2022-09-20T07:36:01.831Z,28.17
2022-09-20T07:37:04.604Z,28.19
2022-09-20T07:38:13.171Z,28.25
2022-09-20T07:39:04.019Z,28.31
2022-09-20T07:40:04.600Z,28.36
2022-09-20T07:41:05.291Z,28.41
2022-09-20T07:42:06.000Z,28.44
2022-09-20T07:43:06.702Z,28.48
2022-09-20T07:44:07.704Z,28.52
2022-09-20T07:45:08.415Z,28.61
2022-09-20T07:46:09.118Z,28.66
2022-09-20T07:47:15.215Z,28.54
2022-09-20T07:48:10.208Z,28.44
2022-09-20T07:49:11.336Z,28.37
2022-09-20T07:50:12.084Z,28.24
2022-09-20T07:51:12.145Z,28.21
2022-09-20T07:52:16.736Z,28.18
2022-09-20T07:53:21.890Z,28.22
2022-09-20T07:54:14.012Z,28.33
2022-09-20T07:55:15.048Z,28.48
2022-09-20T07:56:15.272Z,28.61
2022-09-20T07:57:15.855Z,28.70
2022-09-20T07:58:17.906Z,28.76
2022-09-20T07:59:21.134Z,28.85
2022-09-20T08:00:30.115Z,28.89
2022-09-20T08:01:18.948Z,28.89
2022-09-20T08:02:19.373Z,28.95
2022-09-20T08:03:20.121Z,29.05
2022-09-20T08:04:20.868Z,29.08
2022-09-20T08:05:21.939Z,29.12
2022-09-20T08:06:22.438Z,29.19
2022-09-20T08:07:22.961Z,29.26
2022-09-20T08:08:23.561Z,29.31
2022-09-20T08:09:24.428Z,29.41
2022-09-20T08:10:25.091Z,29.48
2022-09-20T08:11:28.745Z,29.49
2022-09-20T08:14:27.908Z,29.58
2022-09-20T08:15:28.920Z,29.61
2022-09-20T08:16:29.314Z,29.64
2022-09-20T08:17:30.433Z,29.70
2022-09-20T08:18:31.006Z,29.73
2022-09-20T08:19:31.695Z,29.74
2022-09-20T08:20:31.923Z,29.71
2022-09-20T08:21:32.636Z,29.68
2022-09-20T08:22:33.170Z,29.68
2022-09-20T08:23:34.110Z,29.78
2022-09-20T08:24:34.540Z,29.85
2022-09-20T08:25:35.197Z,29.94
2022-09-20T08:26:36.164Z,30.02
2022-09-20T08:27:37.257Z,30.10
2022-09-20T08:28:37.547Z,30.17
2022-09-20T08:29:56.702Z,30.23
2022-09-20T08:30:38.912Z,30.29
2022-09-20T08:31:39.605Z,30.34
2022-09-20T08:32:40.345Z,30.39
2022-09-20T08:33:40.935Z,30.49
2022-09-20T08:34:41.559Z,30.55
2022-09-20T08:35:42.237Z,30.60
2022-09-20T08:36:42.914Z,30.62
2022-09-20T08:37:43.582Z,30.67
2022-09-20T08:40:00.574Z,30.76
2022-09-20T08:40:46.021Z,30.82
2022-09-20T08:41:46.771Z,30.88
2022-09-20T08:42:47.450Z,30.86
2022-09-20T08:43:48.027Z,30.92
2022-09-20T08:44:57.608Z,30.98
2022-09-20T08:45:49.794Z,31.07
2022-09-20T08:46:50.626Z,31.17
2022-09-20T08:47:55.234Z,31.20
2022-09-20T08:48:52.376Z,31.26
2022-09-20T08:49:57.776Z,31.35
2022-09-20T08:50:54.194Z,31.35
2022-09-20T08:51:54.976Z,31.39
2022-09-20T08:53:00.256Z,31.47
2022-09-20T08:53:56.603Z,31.50
2022-09-20T08:54:57.177Z,31.50
2022-09-20T08:55:58.222Z,31.41
2022-09-20T08:56:58.690Z,31.35
2022-09-20T08:57:59.352Z,31.39
2022-09-20T08:59:00.125Z,31.51
2022-09-20T09:00:00.738Z,31.62
2022-09-20T09:01:02.958Z,31.70
2022-09-20T09:02:02.798Z,31.73
2022-09-20T09:03:03.208Z,31.76
2022-09-20T09:04:03.841Z,31.81
2022-09-20T09:05:04.429Z,31.78
2022-09-20T09:06:11.188Z,31.72
2022-09-20T09:07:06.365Z,31.73
2022-09-20T09:08:06.642Z,31.80
2022-09-20T09:09:07.354Z,31.95
2022-09-20T09:10:08.012Z,32.14
2022-09-20T09:11:08.644Z,32.28
2022-09-20T09:12:14.347Z,32.35
2022-09-20T09:13:10.007Z,32.45
2022-09-20T09:14:23.762Z,32.51
2022-09-20T09:15:17.737Z,32.60
2022-09-20T09:16:12.041Z,32.65
2022-09-20T09:17:14.154Z,32.70
2022-09-20T09:18:14.842Z,32.78
2022-09-20T09:19:14.480Z,32.88
2022-09-20T09:20:15.150Z,32.96
2022-09-20T09:21:15.784Z,33.06
2022-09-20T09:22:16.872Z,33.15
2022-09-20T09:23:17.362Z,33.19
2022-09-20T09:24:17.994Z,33.26
2022-09-20T09:25:18.140Z,33.35
2022-09-20T09:26:19.445Z,33.49
2022-09-20T09:27:20.297Z,33.51
2022-09-20T09:28:20.595Z,33.54
2022-09-20T09:29:21.150Z,33.59
2022-09-20T09:30:21.838Z,33.53
2022-09-20T09:31:22.603Z,33.45
2022-09-20T09:32:24.026Z,33.51
2022-09-20T09:33:24.432Z,33.60
2022-09-20T09:34:28.421Z,33.69
2022-09-20T09:35:26.306Z,33.75
2022-09-20T09:36:29.253Z,33.86
2022-09-20T09:37:28.950Z,33.94
2022-09-20T09:38:28.252Z,34.03
2022-09-20T09:39:28.978Z,34.09
2022-09-20T09:40:29.994Z,34.13
2022-09-20T09:41:30.230Z,34.16
2022-09-20T09:42:30.874Z,34.21
2022-09-20T09:43:31.572Z,34.22
2022-09-20T09:44:32.248Z,34.27
2022-09-20T09:45:32.926Z,34.32
2022-09-20T09:46:33.572Z,34.39
2022-09-20T09:47:34.314Z,34.46
2022-09-20T09:48:40.274Z,34.47
2022-09-20T09:49:35.848Z,34.49
2022-09-20T09:50:36.535Z,34.54
2022-09-20T09:51:37.399Z,34.61
2022-09-20T09:52:38.266Z,34.65
2022-09-20T09:53:42.995Z,34.70
2022-09-20T09:54:39.959Z,34.78
2022-09-20T09:55:40.931Z,34.81
2022-09-20T09:56:41.644Z,34.89
2022-09-20T09:57:42.594Z,35.03
2022-09-20T09:58:43.271Z,35.11
2022-09-20T09:59:43.850Z,35.19
2022-09-20T10:00:44.475Z,35.31
2022-09-20T10:01:45.197Z,35.36
2022-09-20T10:02:46.222Z,35.34
2022-09-20T10:03:47.165Z,35.41
2022-09-20T10:04:47.286Z,35.41
2022-09-20T10:05:47.932Z,35.50
2022-09-20T10:06:52.249Z,35.56
2022-09-20T10:07:49.102Z,35.66
2022-09-20T10:08:49.793Z,35.74
2022-09-20T10:09:50.487Z,35.80
2022-09-20T10:10:51.122Z,35.72
2022-09-20T10:11:51.719Z,35.55
2022-09-20T10:12:52.394Z,35.41
2022-09-20T10:13:52.965Z,35.28
2022-09-20T10:14:53.782Z,35.10
2022-09-20T10:15:54.919Z,34.96
2022-09-20T10:16:55.765Z,34.82
2022-09-20T10:17:56.223Z,34.69
2022-09-20T10:18:56.824Z,34.58
2022-09-20T10:19:58.564Z,34.44
2022-09-20T10:20:58.420Z,34.34
2022-09-20T10:21:59.141Z,34.24
2022-09-20T10:23:34.422Z,34.10
2022-09-20T10:24:04.761Z,33.98
2022-09-20T10:25:01.141Z,33.93
2022-09-20T10:26:01.798Z,33.93
2022-09-20T10:27:02.406Z,33.94
2022-09-20T10:28:03.205Z,33.95
2022-09-20T10:29:03.855Z,33.97
2022-09-20T10:30:04.565Z,33.98
2022-09-20T10:31:05.441Z,33.98
2022-09-20T10:32:06.181Z,33.94
2022-09-20T10:33:06.986Z,33.90
2022-09-20T10:34:07.680Z,33.90
2022-09-20T10:35:08.377Z,33.90
2022-09-20T10:36:09.149Z,33.88
2022-09-20T10:37:10.155Z,33.90
2022-09-20T10:38:20.413Z,33.93
2022-09-20T10:39:19.559Z,33.98
2022-09-20T10:40:12.234Z,34.08
2022-09-20T10:41:12.910Z,34.15
2022-09-20T10:42:13.780Z,34.27
2022-09-20T10:43:14.454Z,34.31
2022-09-20T10:44:15.048Z,34.40
2022-09-20T10:45:36.039Z,34.52
2022-09-20T10:46:33.646Z,34.59
2022-09-20T10:47:19.206Z,34.62
2022-09-20T10:48:33.535Z,34.65
2022-09-20T10:49:19.585Z,34.56
2022-09-20T10:50:49.466Z,34.53
2022-09-20T10:51:20.519Z,34.49
2022-09-20T10:52:20.685Z,34.44
2022-09-20T10:53:29.340Z,34.44
2022-09-20T10:54:22.359Z,34.42
2022-09-20T10:55:22.398Z,34.39
2022-09-20T10:56:23.116Z,34.37
2022-09-20T10:57:26.513Z,34.31
2022-09-20T10:58:25.817Z,34.27
2022-09-20T10:59:28.028Z,34.31
2022-09-20T11:00:34.215Z,34.34
2022-09-20T11:01:29.052Z,34.34
2022-09-20T11:02:28.650Z,34.34
2022-09-20T11:03:29.011Z,34.32
2022-09-20T11:04:29.926Z,34.25
2022-09-20T11:05:30.548Z,34.19
2022-09-20T11:06:31.180Z,34.10
2022-09-20T11:07:32.750Z,34.03
2022-09-20T11:08:32.520Z,34.02
2022-09-20T11:09:33.181Z,34.02
2022-09-20T11:10:33.766Z,34.03
2022-09-20T11:11:34.556Z,34.08
2022-09-20T11:12:36.176Z,34.12
2022-09-20T11:13:37.055Z,34.16
2022-09-20T11:14:37.381Z,34.27
2022-09-20T11:15:37.820Z,34.37
2022-09-20T11:16:38.575Z,34.43
2022-09-20T11:17:39.199Z,34.49
2022-09-20T11:18:39.939Z,34.58
2022-09-20T11:19:40.260Z,34.70
2022-09-20T11:20:40.882Z,34.82
2022-09-20T11:21:41.456Z,34.92
2022-09-20T11:22:42.128Z,35.07
2022-09-20T11:23:42.903Z,35.15
2022-09-20T11:24:43.572Z,35.09
2022-09-20T11:25:44.196Z,35.07
2022-09-20T11:26:59.043Z,35.09
2022-09-20T11:27:46.008Z,35.11
2022-09-20T11:28:46.545Z,35.04
2022-09-20T11:29:47.799Z,35.22
2022-09-20T11:30:49.318Z,35.55
2022-09-20T11:31:49.809Z,35.58
2022-09-20T11:32:50.791Z,35.59
2022-09-20T11:33:50.966Z,35.43
2022-09-20T11:34:51.906Z,35.33
2022-09-20T11:35:53.293Z,35.25
2022-09-20T11:36:53.567Z,35.52
2022-09-20T11:37:54.889Z,35.62
2022-09-20T11:38:55.747Z,35.75
2022-09-20T11:39:56.015Z,35.92
2022-09-20T11:40:58.302Z,35.84
2022-09-20T11:41:57.312Z,35.84
2022-09-20T11:42:57.592Z,35.77
2022-09-20T11:43:59.026Z,35.70
2022-09-20T11:44:59.482Z,35.80
2022-09-20T11:46:01.609Z,35.82
2022-09-20T11:47:02.270Z,35.81
2022-09-20T11:48:02.347Z,35.77
2022-09-20T11:49:03.170Z,35.74
2022-09-20T11:50:03.510Z,35.70
2022-09-20T11:51:03.306Z,35.65
2022-09-20T11:52:04.920Z,35.62
2022-09-20T11:53:05.153Z,35.59
2022-09-20T11:54:06.785Z,35.59
2022-09-20T11:55:05.562Z,35.58
2022-09-20T11:56:07.904Z,35.59
2022-09-20T11:57:08.118Z,35.59
2022-09-20T11:58:08.772Z,35.58
2022-09-20T11:59:10.492Z,35.58
2022-09-20T12:00:09.772Z,35.59
2022-09-20T12:01:11.823Z,35.62
2022-09-20T12:02:11.936Z,35.63
2022-09-20T12:03:12.583Z,35.68
2022-09-20T12:04:31.849Z,35.68
2022-09-20T12:05:13.362Z,35.71
2022-09-20T12:06:13.485Z,35.72
2022-09-20T12:07:17.864Z,35.78
2022-09-20T12:08:16.228Z,35.78
2022-09-20T12:09:18.201Z,35.87
2022-09-20T12:10:18.292Z,35.93
2022-09-20T12:11:19.102Z,35.97
2022-09-20T12:12:19.576Z,36.00
2022-09-20T12:13:21.335Z,36.01
2022-09-20T12:14:22.117Z,36.05
2022-09-20T12:15:22.050Z,36.08
2022-09-20T12:16:21.955Z,36.13
2022-09-20T12:17:23.690Z,36.20
2022-09-20T12:18:24.322Z,36.25
2022-09-20T12:19:25.617Z,36.29
2022-09-20T12:20:26.022Z,36.35
2022-09-20T12:21:26.215Z,36.43
2022-09-20T12:22:27.467Z,36.50
2022-09-20T12:23:29.007Z,36.59
2022-09-20T12:24:30.396Z,36.71
2022-09-20T12:25:30.108Z,36.83
2022-09-20T12:26:30.388Z,36.93
2022-09-20T12:27:30.253Z,36.98
2022-09-20T12:28:32.236Z,37.05
2022-09-20T12:29:32.740Z,37.12
2022-09-20T12:30:32.225Z,37.21
2022-09-20T12:31:33.126Z,37.28
2022-09-20T12:32:33.915Z,37.37
2022-09-20T12:33:34.719Z,37.49
2022-09-20T12:34:35.225Z,37.57
2022-09-20T12:35:36.230Z,37.64
2022-09-20T12:36:36.459Z,37.72
2022-09-20T12:37:36.543Z,37.82
2022-09-20T12:38:37.299Z,37.91
2022-09-20T12:39:38.060Z,37.97
2022-09-20T12:40:38.790Z,38.07
2022-09-20T12:41:39.349Z,38.18
2022-09-20T12:42:40.005Z,38.28
2022-09-20T12:43:40.695Z,38.37
2022-09-20T12:44:41.621Z,38.44
2022-09-20T12:45:42.235Z,38.54
2022-09-20T12:46:42.975Z,38.65
2022-09-20T12:47:43.634Z,38.76
2022-09-20T12:48:44.311Z,38.88
2022-09-20T12:49:44.991Z,39.04
2022-09-20T12:50:46.386Z,39.16
2022-09-20T12:51:46.576Z,39.28
2022-09-20T12:52:47.241Z,39.38
2022-09-20T12:53:47.880Z,39.44
2022-09-20T12:54:48.519Z,39.41
2022-09-20T12:55:49.229Z,39.32
2022-09-20T12:56:49.927Z,39.07
2022-09-20T12:57:50.621Z,38.78
2022-09-20T12:58:51.304Z,38.47
2022-09-20T12:59:52.071Z,38.12
2022-09-20T13:00:52.632Z,37.78
2022-09-20T13:01:53.283Z,37.46
2022-09-20T13:02:53.813Z,37.13
2022-09-20T13:03:54.494Z,36.85
2022-09-20T13:04:55.040Z,36.64
2022-09-20T13:05:55.689Z,36.39